EGGP

Liverpool John Lennon Airport

Liverpool, United Kingdom
TAF EGGP 211653Z 2118/2218 16009KT 9999 FEW035 TEMPO 2118/2207 9000 PROB30 TEMPO 2123/2201 VRB15G25KT 4000 TSRAGS PROB30 TEMPO 2205/2214 5000 RA BKN012 BECMG 2209/2212 24010KT
Issued Valid From Valid To
Apr-21 @ 16:53 UTC
(6 hours ago)
Apr-21 @ 18:00 UTC
(5 hours ago)
Apr-22 @ 18:00 UTC
(in 19 hours)
Apr-21 @ 18:00 to Apr-22 @ 09:00
TAF EGGP 211653Z 2118/2218 16009KT 9999 FEW035
Wind Visibility Clouds
160° at 9 knots 10,000+ meters
  • Few at 3,500' AGL
Temporary Apr-21 @ 18:00 to Apr-22 @ 07:00
TEMPO 2118/2207 9000
Visibility
8,996 meters
Temporary  (Probability 30%) Apr-21 @ 23:00 to Apr-22 @ 01:00
PROB30 TEMPO 2123/2201 VRB15G25KT 4000 TSRAGS
Wind Visibility Conditions
Variable at 15 knots
 Gusting to 25 knots
4,007 meters
  • Thunderstorm
  • Rain
  • Thunderstorm
  • Small hail
Temporary  (Probability 30%) Apr-22 @ 05:00 to Apr-22 @ 14:00
PROB30 TEMPO 2205/2214 5000 RA BKN012
Visibility Clouds Conditions
5,005 meters
  • Broken at 1,200' AGL
  • Rain
Becoming Apr-22 @ 09:00 to Apr-22 @ 18:00
BECMG 2209/2212 24010KT
Wind Visibility Clouds
240° at 10 knots 10,000+ meters
  • Few at 3,500' AGL
TAF EGGP 211653Z 2118/2218 16009KT 9999 FEW035 TEMPO 2118/2207 9000 PROB30 TEMPO 2123/2201 VRB15G25KT 4000 TSRAGS PROB30 TEMPO 2205/2214 5000 RA BKN012 BECMG 2209/2212 24010KT
Issued Apr-21 @ 16:53 UTC
(6 hours ago)
Valid From Apr-21 @ 18:00 UTC
(5 hours ago)
Valid To Apr-22 @ 18:00 UTC
(in 19 hours)
Apr-21 @ 18:00 - Apr-22 @ 09:00
Wind Visibility
160° at 9 knots 10,000+ meters
Clouds
  • Few at 3,500' AGL
Temporary Apr-21 @ 18:00 - Apr-22 @ 07:00
Probability 30% Temporary Apr-21 @ 23:00 - Apr-22 @ 01:00
Wind Visibility
Variable at 15 knots
 Gusting to 25 knots
4,007 meters
Conditions
  • Thunderstorm
  • Rain
  • Thunderstorm
  • Small hail
Probability 30% Temporary Apr-22 @ 05:00 - Apr-22 @ 14:00
Clouds
  • Broken at 1,200' AGL
Conditions
  • Rain
Becoming Apr-22 @ 09:00 - Apr-22 @ 18:00
Wind Visibility
240° at 10 knots 10,000+ meters
Clouds
  • Few at 3,500' AGL